Terminal Aerodrome Forecast
Issued by NWS

Current Version | Previous Version | Text Only | Print | Product List | Glossary Off
Versions: 1 2 3 4 5 6 7 8 9 10 11 12 13 14 15

000
FTUS41 KPBZ 210500
TAFMGW
TAF
KMGW 210535Z 2106/2206 15004KT P6SM BKN040
     FM210800 VRB03KT 4SM BR SCT040
      TEMPO 2109/2112 2SM BR SCT002
     FM211300 VRB03KT P6SM SCT040=

USA.gov is the U.S. government's official web portal to all federal, state and local government web resources and services.